sensor_id;sensor_type;location;lat;lon;timestamp;P1;durP1;ratioP1;P2;durP2;ratioP2
25810;SDS011;13645;52.460;13.910;2022-07-06T00:01:53;6.53;;;0.90;;
25810;SDS011;13645;52.460;13.910;2022-07-06T00:04:19;4.50;;;1.00;;
25810;SDS011;13645;52.460;13.910;2022-07-06T00:06:47;7.15;;;1.00;;
25810;SDS011;13645;52.460;13.910;2022-07-06T00:09:14;2.25;;;0.90;;
25810;SDS011;13645;52.460;13.910;2022-07-06T00:11:41;5.35;;;1.00;;
25810;SDS011;13645;52.460;13.910;2022-07-06T00:14:08;6.35;;;1.08;;
25810;SDS011;13645;52.460;13.910;2022-07-06T00:16:35;4.65;;;1.20;;
25810;SDS011;13645;52.460;13.910;2022-07-06T00:19:02;6.10;;;1.30;;
25810;SDS011;13645;52.460;13.910;2022-07-06T00:21:29;5.90;;;1.20;;
25810;SDS011;13645;52.460;13.910;2022-07-06T00:23:55;3.13;;;0.90;;
25810;SDS011;13645;52.460;13.910;2022-07-06T00:26:22;4.13;;;1.30;;
25810;SDS011;13645;52.460;13.910;2022-07-06T00:28:49;2.33;;;1.00;;
25810;SDS011;13645;52.460;13.910;2022-07-06T00:31:17;3.90;;;1.08;;
25810;SDS011;13645;52.460;13.910;2022-07-06T00:33:44;3.70;;;0.90;;
25810;SDS011;13645;52.460;13.910;2022-07-06T00:36:10;3.05;;;1.08;;
25810;SDS011;13645;52.460;13.910;2022-07-06T00:38:37;2.08;;;0.95;;
25810;SDS011;13645;52.460;13.910;2022-07-06T00:41:04;5.63;;;1.00;;
25810;SDS011;13645;52.460;13.910;2022-07-06T00:43:49;3.67;;;1.23;;
25810;SDS011;13645;52.460;13.910;2022-07-06T00:46:25;1.83;;;0.90;;
25810;SDS011;13645;52.460;13.910;2022-07-06T00:48:54;2.72;;;1.13;;
25810;SDS011;13645;52.460;13.910;2022-07-06T00:51:22;7.65;;;1.08;;
25810;SDS011;13645;52.460;13.910;2022-07-06T00:53:52;2.63;;;1.02;;
25810;SDS011;13645;52.460;13.910;2022-07-06T00:56:20;2.63;;;0.90;;
25810;SDS011;13645;52.460;13.910;2022-07-06T00:58:48;2.75;;;1.05;;
25810;SDS011;13645;52.460;13.910;2022-07-06T01:01:15;4.50;;;1.00;;
25810;SDS011;13645;52.460;13.910;2022-07-06T01:03:41;3.67;;;1.13;;
25810;SDS011;13645;52.460;13.910;2022-07-06T01:06:08;1.33;;;0.82;;
25810;SDS011;13645;52.460;13.910;2022-07-06T01:08:36;5.40;;;1.10;;
25810;SDS011;13645;52.460;13.910;2022-07-06T01:11:04;3.95;;;1.00;;
25810;SDS011;13645;52.460;13.910;2022-07-06T01:13:31;4.10;;;0.95;;
25810;SDS011;13645;52.460;13.910;2022-07-06T01:15:59;2.15;;;1.00;;
25810;SDS011;13645;52.460;13.910;2022-07-06T01:18:26;2.58;;;1.00;;
25810;SDS011;13645;52.460;13.910;2022-07-06T01:21:04;2.03;;;1.00;;
25810;SDS011;13645;52.460;13.910;2022-07-06T01:23:39;2.22;;;1.13;;
25810;SDS011;13645;52.460;13.910;2022-07-06T01:26:14;3.00;;;1.10;;
25810;SDS011;13645;52.460;13.910;2022-07-06T01:28:42;1.45;;;0.80;;
25810;SDS011;13645;52.460;13.910;2022-07-06T01:31:15;2.15;;;1.10;;
25810;SDS011;13645;52.460;13.910;2022-07-06T01:33:45;2.72;;;0.85;;
25810;SDS011;13645;52.460;13.910;2022-07-06T01:36:12;2.75;;;1.38;;
25810;SDS011;13645;52.460;13.910;2022-07-06T01:38:45;1.58;;;1.00;;
25810;SDS011;13645;52.460;13.910;2022-07-06T01:41:19;8.27;;;1.23;;
25810;SDS011;13645;52.460;13.910;2022-07-06T01:43:46;2.38;;;0.93;;
25810;SDS011;13645;52.460;13.910;2022-07-06T01:46:13;4.10;;;1.02;;
25810;SDS011;13645;52.460;13.910;2022-07-06T01:48:40;4.63;;;0.95;;
25810;SDS011;13645;52.460;13.910;2022-07-06T01:51:07;2.33;;;1.00;;
25810;SDS011;13645;52.460;13.910;2022-07-06T01:53:37;2.90;;;0.90;;
25810;SDS011;13645;52.460;13.910;2022-07-06T01:56:04;2.33;;;0.82;;
25810;SDS011;13645;52.460;13.910;2022-07-06T01:58:33;2.35;;;1.00;;
25810;SDS011;13645;52.460;13.910;2022-07-06T02:01:00;1.92;;;1.10;;
25810;SDS011;13645;52.460;13.910;2022-07-06T02:03:32;4.43;;;0.88;;
25810;SDS011;13645;52.460;13.910;2022-07-06T02:06:01;3.45;;;1.10;;
25810;SDS011;13645;52.460;13.910;2022-07-06T02:08:29;1.60;;;1.00;;
25810;SDS011;13645;52.460;13.910;2022-07-06T02:10:55;1.35;;;0.80;;
25810;SDS011;13645;52.460;13.910;2022-07-06T02:13:22;4.45;;;1.38;;
25810;SDS011;13645;52.460;13.910;2022-07-06T02:15:49;1.83;;;0.90;;
25810;SDS011;13645;52.460;13.910;2022-07-06T02:18:16;2.58;;;1.23;;
25810;SDS011;13645;52.460;13.910;2022-07-06T02:20:43;3.30;;;1.20;;
25810;SDS011;13645;52.460;13.910;2022-07-06T02:23:10;2.22;;;1.00;;
25810;SDS011;13645;52.460;13.910;2022-07-06T02:25:36;0.98;;;0.68;;
25810;SDS011;13645;52.460;13.910;2022-07-06T02:28:03;3.65;;;1.10;;
25810;SDS011;13645;52.460;13.910;2022-07-06T02:30:30;5.30;;;0.90;;
25810;SDS011;13645;52.460;13.910;2022-07-06T02:32:57;4.32;;;1.10;;
25810;SDS011;13645;52.460;13.910;2022-07-06T02:35:23;4.82;;;1.40;;
25810;SDS011;13645;52.460;13.910;2022-07-06T02:37:50;2.70;;;1.00;;
25810;SDS011;13645;52.460;13.910;2022-07-06T02:40:17;1.77;;;0.80;;
25810;SDS011;13645;52.460;13.910;2022-07-06T02:42:44;3.35;;;1.13;;
25810;SDS011;13645;52.460;13.910;2022-07-06T02:45:10;4.22;;;0.98;;
25810;SDS011;13645;52.460;13.910;2022-07-06T02:47:37;2.80;;;1.20;;
25810;SDS011;13645;52.460;13.910;2022-07-06T02:50:04;1.50;;;0.80;;
25810;SDS011;13645;52.460;13.910;2022-07-06T02:52:32;5.03;;;1.00;;
25810;SDS011;13645;52.460;13.910;2022-07-06T02:55:06;5.72;;;1.10;;
25810;SDS011;13645;52.460;13.910;2022-07-06T02:57:33;5.85;;;1.20;;
25810;SDS011;13645;52.460;13.910;2022-07-06T02:59:59;4.13;;;0.93;;
25810;SDS011;13645;52.460;13.910;2022-07-06T03:02:26;3.17;;;1.30;;
25810;SDS011;13645;52.460;13.910;2022-07-06T03:04:53;4.28;;;1.10;;
25810;SDS011;13645;52.460;13.910;2022-07-06T03:07:20;2.22;;;0.90;;
25810;SDS011;13645;52.460;13.910;2022-07-06T03:09:46;5.93;;;1.13;;
25810;SDS011;13645;52.460;13.910;2022-07-06T03:12:13;5.90;;;1.30;;
25810;SDS011;13645;52.460;13.910;2022-07-06T03:14:40;4.97;;;0.90;;
25810;SDS011;13645;52.460;13.910;2022-07-06T03:17:06;2.05;;;1.00;;
25810;SDS011;13645;52.460;13.910;2022-07-06T03:19:33;4.30;;;1.10;;
25810;SDS011;13645;52.460;13.910;2022-07-06T03:22:00;3.00;;;1.20;;
25810;SDS011;13645;52.460;13.910;2022-07-06T03:24:27;3.75;;;0.80;;
25810;SDS011;13645;52.460;13.910;2022-07-06T03:26:54;4.07;;;1.10;;
25810;SDS011;13645;52.460;13.910;2022-07-06T03:29:21;2.53;;;0.88;;
25810;SDS011;13645;52.460;13.910;2022-07-06T03:31:48;5.18;;;0.98;;
25810;SDS011;13645;52.460;13.910;2022-07-06T03:34:15;7.78;;;1.02;;
25810;SDS011;13645;52.460;13.910;2022-07-06T03:36:41;5.05;;;1.13;;
25810;SDS011;13645;52.460;13.910;2022-07-06T03:39:08;7.93;;;1.45;;
25810;SDS011;13645;52.460;13.910;2022-07-06T03:41:35;4.70;;;1.15;;
25810;SDS011;13645;52.460;13.910;2022-07-06T03:44:02;4.80;;;1.50;;
25810;SDS011;13645;52.460;13.910;2022-07-06T03:46:28;5.47;;;1.13;;
25810;SDS011;13645;52.460;13.910;2022-07-06T03:48:55;4.80;;;1.50;;
25810;SDS011;13645;52.460;13.910;2022-07-06T03:51:22;7.07;;;1.52;;
25810;SDS011;13645;52.460;13.910;2022-07-06T03:53:50;10.48;;;1.50;;
25810;SDS011;13645;52.460;13.910;2022-07-06T03:56:16;6.55;;;1.27;;
25810;SDS011;13645;52.460;13.910;2022-07-06T03:58:56;5.95;;;1.50;;
25810;SDS011;13645;52.460;13.910;2022-07-06T04:01:24;4.90;;;1.90;;
25810;SDS011;13645;52.460;13.910;2022-07-06T04:03:51;9.35;;;2.28;;
25810;SDS011;13645;52.460;13.910;2022-07-06T04:06:18;8.75;;;1.90;;
25810;SDS011;13645;52.460;13.910;2022-07-06T04:08:45;7.13;;;1.60;;
25810;SDS011;13645;52.460;13.910;2022-07-06T04:11:12;3.63;;;1.73;;
25810;SDS011;13645;52.460;13.910;2022-07-06T04:13:39;7.03;;;2.10;;
25810;SDS011;13645;52.460;13.910;2022-07-06T04:16:06;10.68;;;3.03;;
25810;SDS011;13645;52.460;13.910;2022-07-06T04:18:33;3.83;;;1.60;;
25810;SDS011;13645;52.460;13.910;2022-07-06T04:21:00;8.40;;;1.42;;
25810;SDS011;13645;52.460;13.910;2022-07-06T04:23:28;3.58;;;1.27;;
25810;SDS011;13645;52.460;13.910;2022-07-06T04:25:55;5.60;;;1.63;;
25810;SDS011;13645;52.460;13.910;2022-07-06T04:28:21;12.60;;;1.60;;
25810;SDS011;13645;52.460;13.910;2022-07-06T04:30:49;7.78;;;1.65;;
25810;SDS011;13645;52.460;13.910;2022-07-06T04:33:16;3.25;;;1.80;;
25810;SDS011;13645;52.460;13.910;2022-07-06T04:35:42;7.30;;;1.40;;
25810;SDS011;13645;52.460;13.910;2022-07-06T04:38:09;6.70;;;1.98;;
25810;SDS011;13645;52.460;13.910;2022-07-06T04:40:36;10.18;;;1.58;;
25810;SDS011;13645;52.460;13.910;2022-07-06T04:43:02;6.78;;;1.20;;
25810;SDS011;13645;52.460;13.910;2022-07-06T04:45:29;5.65;;;2.00;;
25810;SDS011;13645;52.460;13.910;2022-07-06T04:47:56;3.95;;;1.42;;
25810;SDS011;13645;52.460;13.910;2022-07-06T04:50:22;3.03;;;1.25;;
25810;SDS011;13645;52.460;13.910;2022-07-06T04:52:50;4.75;;;1.30;;
25810;SDS011;13645;52.460;13.910;2022-07-06T04:55:17;4.00;;;1.42;;
25810;SDS011;13645;52.460;13.910;2022-07-06T04:57:44;3.42;;;1.50;;
25810;SDS011;13645;52.460;13.910;2022-07-06T05:00:11;3.45;;;1.30;;
25810;SDS011;13645;52.460;13.910;2022-07-06T05:02:38;5.68;;;1.60;;
25810;SDS011;13645;52.460;13.910;2022-07-06T05:05:05;3.08;;;1.25;;
25810;SDS011;13645;52.460;13.910;2022-07-06T05:07:32;2.13;;;1.35;;
25810;SDS011;13645;52.460;13.910;2022-07-06T05:10:00;6.40;;;1.70;;
25810;SDS011;13645;52.460;13.910;2022-07-06T05:12:26;7.25;;;1.70;;
25810;SDS011;13645;52.460;13.910;2022-07-06T05:14:53;2.97;;;1.52;;
25810;SDS011;13645;52.460;13.910;2022-07-06T05:17:20;4.15;;;1.40;;
25810;SDS011;13645;52.460;13.910;2022-07-06T05:19:54;8.73;;;1.70;;
25810;SDS011;13645;52.460;13.910;2022-07-06T05:22:21;9.57;;;1.88;;
25810;SDS011;13645;52.460;13.910;2022-07-06T05:24:48;5.95;;;1.75;;
25810;SDS011;13645;52.460;13.910;2022-07-06T05:27:14;9.45;;;1.85;;
25810;SDS011;13645;52.460;13.910;2022-07-06T05:29:41;5.55;;;1.80;;
25810;SDS011;13645;52.460;13.910;2022-07-06T05:32:08;3.80;;;1.70;;
25810;SDS011;13645;52.460;13.910;2022-07-06T05:34:34;11.55;;;1.92;;
25810;SDS011;13645;52.460;13.910;2022-07-06T05:37:02;10.18;;;2.17;;
25810;SDS011;13645;52.460;13.910;2022-07-06T05:39:29;8.52;;;1.80;;
25810;SDS011;13645;52.460;13.910;2022-07-06T05:41:56;9.18;;;1.77;;
25810;SDS011;13645;52.460;13.910;2022-07-06T05:44:22;12.23;;;1.80;;
25810;SDS011;13645;52.460;13.910;2022-07-06T05:46:49;7.20;;;1.52;;
25810;SDS011;13645;52.460;13.910;2022-07-06T05:49:16;6.90;;;1.60;;
25810;SDS011;13645;52.460;13.910;2022-07-06T05:52:01;5.57;;;1.52;;
25810;SDS011;13645;52.460;13.910;2022-07-06T05:54:28;4.03;;;1.52;;
25810;SDS011;13645;52.460;13.910;2022-07-06T05:56:55;14.30;;;1.88;;
25810;SDS011;13645;52.460;13.910;2022-07-06T05:59:22;10.20;;;1.98;;
25810;SDS011;13645;52.460;13.910;2022-07-06T06:01:48;9.82;;;1.90;;
25810;SDS011;13645;52.460;13.910;2022-07-06T06:04:15;9.07;;;2.20;;
25810;SDS011;13645;52.460;13.910;2022-07-06T06:06:42;6.60;;;1.40;;
25810;SDS011;13645;52.460;13.910;2022-07-06T06:09:08;10.13;;;1.40;;
25810;SDS011;13645;52.460;13.910;2022-07-06T06:11:35;10.73;;;2.30;;
25810;SDS011;13645;52.460;13.910;2022-07-06T06:14:02;9.30;;;1.75;;
25810;SDS011;13645;52.460;13.910;2022-07-06T06:16:30;10.77;;;1.58;;
25810;SDS011;13645;52.460;13.910;2022-07-06T06:18:57;5.63;;;1.42;;
25810;SDS011;13645;52.460;13.910;2022-07-06T06:21:23;9.18;;;1.83;;
25810;SDS011;13645;52.460;13.910;2022-07-06T06:23:50;6.15;;;1.45;;
25810;SDS011;13645;52.460;13.910;2022-07-06T06:26:17;5.72;;;1.60;;
25810;SDS011;13645;52.460;13.910;2022-07-06T06:28:43;9.10;;;1.90;;
25810;SDS011;13645;52.460;13.910;2022-07-06T06:31:11;14.73;;;2.17;;
25810;SDS011;13645;52.460;13.910;2022-07-06T06:33:37;10.90;;;1.38;;
25810;SDS011;13645;52.460;13.910;2022-07-06T06:36:04;3.78;;;1.20;;
25810;SDS011;13645;52.460;13.910;2022-07-06T06:38:31;8.77;;;1.60;;
25810;SDS011;13645;52.460;13.910;2022-07-06T06:40:58;8.45;;;1.60;;
25810;SDS011;13645;52.460;13.910;2022-07-06T06:43:26;12.32;;;1.50;;
25810;SDS011;13645;52.460;13.910;2022-07-06T06:45:53;9.68;;;1.90;;
25810;SDS011;13645;52.460;13.910;2022-07-06T06:48:19;8.15;;;1.50;;
25810;SDS011;13645;52.460;13.910;2022-07-06T06:50:46;7.28;;;1.48;;
25810;SDS011;13645;52.460;13.910;2022-07-06T06:53:13;5.30;;;1.42;;
25810;SDS011;13645;52.460;13.910;2022-07-06T06:55:40;5.85;;;1.30;;
25810;SDS011;13645;52.460;13.910;2022-07-06T06:58:06;4.20;;;1.33;;
25810;SDS011;13645;52.460;13.910;2022-07-06T07:00:33;5.07;;;1.40;;
25810;SDS011;13645;52.460;13.910;2022-07-06T07:03:00;6.90;;;1.00;;
25810;SDS011;13645;52.460;13.910;2022-07-06T07:05:26;6.63;;;1.60;;
25810;SDS011;13645;52.460;13.910;2022-07-06T07:07:53;4.35;;;1.33;;
25810;SDS011;13645;52.460;13.910;2022-07-06T07:10:29;4.20;;;1.23;;
25810;SDS011;13645;52.460;13.910;2022-07-06T07:12:56;3.55;;;0.93;;
25810;SDS011;13645;52.460;13.910;2022-07-06T07:15:23;5.13;;;1.17;;
25810;SDS011;13645;52.460;13.910;2022-07-06T07:17:49;11.30;;;1.63;;
25810;SDS011;13645;52.460;13.910;2022-07-06T07:20:16;7.70;;;1.23;;
25810;SDS011;13645;52.460;13.910;2022-07-06T07:22:43;2.65;;;1.10;;
25810;SDS011;13645;52.460;13.910;2022-07-06T07:25:10;3.72;;;1.20;;
25810;SDS011;13645;52.460;13.910;2022-07-06T07:27:36;4.43;;;1.10;;
25810;SDS011;13645;52.460;13.910;2022-07-06T07:30:03;6.53;;;1.33;;
25810;SDS011;13645;52.460;13.910;2022-07-06T07:32:30;5.30;;;1.25;;
25810;SDS011;13645;52.460;13.910;2022-07-06T07:34:57;3.83;;;1.25;;
25810;SDS011;13645;52.460;13.910;2022-07-06T07:37:24;10.48;;;1.30;;
25810;SDS011;13645;52.460;13.910;2022-07-06T07:39:50;3.45;;;1.08;;
25810;SDS011;13645;52.460;13.910;2022-07-06T07:42:17;6.25;;;1.50;;
25810;SDS011;13645;52.460;13.910;2022-07-06T07:44:44;5.75;;;1.10;;
25810;SDS011;13645;52.460;13.910;2022-07-06T07:47:11;3.28;;;1.25;;
25810;SDS011;13645;52.460;13.910;2022-07-06T07:49:37;4.30;;;1.13;;
25810;SDS011;13645;52.460;13.910;2022-07-06T07:52:04;7.30;;;1.13;;
25810;SDS011;13645;52.460;13.910;2022-07-06T07:54:31;3.85;;;1.10;;
25810;SDS011;13645;52.460;13.910;2022-07-06T07:56:58;6.45;;;1.40;;
25810;SDS011;13645;52.460;13.910;2022-07-06T07:59:25;7.32;;;1.25;;
25810;SDS011;13645;52.460;13.910;2022-07-06T08:01:52;2.97;;;1.10;;
25810;SDS011;13645;52.460;13.910;2022-07-06T08:04:19;3.08;;;0.88;;
25810;SDS011;13645;52.460;13.910;2022-07-06T08:06:46;3.78;;;1.15;;
25810;SDS011;13645;52.460;13.910;2022-07-06T08:09:13;4.00;;;1.35;;
25810;SDS011;13645;52.460;13.910;2022-07-06T08:11:40;6.95;;;1.55;;
25810;SDS011;13645;52.460;13.910;2022-07-06T08:14:07;3.95;;;1.27;;
25810;SDS011;13645;52.460;13.910;2022-07-06T08:16:33;6.18;;;1.33;;
25810;SDS011;13645;52.460;13.910;2022-07-06T08:19:00;4.57;;;1.45;;
25810;SDS011;13645;52.460;13.910;2022-07-06T08:21:35;6.25;;;1.27;;
25810;SDS011;13645;52.460;13.910;2022-07-06T08:24:02;10.35;;;1.80;;
25810;SDS011;13645;52.460;13.910;2022-07-06T08:26:29;3.95;;;1.20;;
25810;SDS011;13645;52.460;13.910;2022-07-06T08:28:56;8.25;;;1.38;;
25810;SDS011;13645;52.460;13.910;2022-07-06T08:31:23;4.60;;;1.20;;
25810;SDS011;13645;52.460;13.910;2022-07-06T08:34:10;4.80;;;1.30;;
25810;SDS011;13645;52.460;13.910;2022-07-06T08:36:37;9.02;;;1.48;;
25810;SDS011;13645;52.460;13.910;2022-07-06T08:39:04;9.00;;;1.38;;
25810;SDS011;13645;52.460;13.910;2022-07-06T08:41:30;5.82;;;1.02;;
25810;SDS011;13645;52.460;13.910;2022-07-06T08:43:57;8.38;;;1.30;;
25810;SDS011;13645;52.460;13.910;2022-07-06T08:46:24;6.50;;;1.10;;
25810;SDS011;13645;52.460;13.910;2022-07-06T08:48:53;8.35;;;1.17;;
25810;SDS011;13645;52.460;13.910;2022-07-06T08:51:21;4.25;;;1.55;;
25810;SDS011;13645;52.460;13.910;2022-07-06T08:53:55;4.65;;;1.40;;
25810;SDS011;13645;52.460;13.910;2022-07-06T08:56:23;5.28;;;1.40;;
25810;SDS011;13645;52.460;13.910;2022-07-06T08:58:51;6.97;;;1.60;;
25810;SDS011;13645;52.460;13.910;2022-07-06T09:01:20;5.82;;;1.20;;
25810;SDS011;13645;52.460;13.910;2022-07-06T09:03:51;4.28;;;1.25;;
25810;SDS011;13645;52.460;13.910;2022-07-06T09:06:27;6.43;;;1.20;;
25810;SDS011;13645;52.460;13.910;2022-07-06T09:08:56;6.78;;;1.45;;
25810;SDS011;13645;52.460;13.910;2022-07-06T09:11:23;4.03;;;1.10;;
25810;SDS011;13645;52.460;13.910;2022-07-06T09:13:52;2.20;;;0.98;;
25810;SDS011;13645;52.460;13.910;2022-07-06T09:16:24;4.57;;;0.98;;
25810;SDS011;13645;52.460;13.910;2022-07-06T09:19:05;5.38;;;1.33;;
25810;SDS011;13645;52.460;13.910;2022-07-06T09:21:33;6.00;;;0.90;;
25810;SDS011;13645;52.460;13.910;2022-07-06T09:24:10;5.28;;;1.27;;
25810;SDS011;13645;52.460;13.910;2022-07-06T09:26:39;10.75;;;1.35;;
25810;SDS011;13645;52.460;13.910;2022-07-06T09:29:07;7.93;;;1.27;;
25810;SDS011;13645;52.460;13.910;2022-07-06T09:31:36;5.50;;;1.05;;
25810;SDS011;13645;52.460;13.910;2022-07-06T09:34:04;5.13;;;1.00;;
25810;SDS011;13645;52.460;13.910;2022-07-06T09:36:42;7.70;;;1.15;;
25810;SDS011;13645;52.460;13.910;2022-07-06T09:41:50;5.68;;;1.30;;
25810;SDS011;13645;52.460;13.910;2022-07-06T09:44:22;4.80;;;1.08;;
25810;SDS011;13645;52.460;13.910;2022-07-06T09:46:53;4.57;;;1.17;;
25810;SDS011;13645;52.460;13.910;2022-07-06T09:49:22;4.72;;;1.15;;
25810;SDS011;13645;52.460;13.910;2022-07-06T09:51:50;2.72;;;0.75;;
25810;SDS011;13645;52.460;13.910;2022-07-06T09:54:18;3.25;;;1.02;;
25810;SDS011;13645;52.460;13.910;2022-07-06T09:56:46;4.65;;;0.90;;
25810;SDS011;13645;52.460;13.910;2022-07-06T09:59:20;3.80;;;0.77;;
25810;SDS011;13645;52.460;13.910;2022-07-06T10:01:51;3.00;;;0.70;;
25810;SDS011;13645;52.460;13.910;2022-07-06T10:04:24;2.28;;;0.70;;
25810;SDS011;13645;52.460;13.910;2022-07-06T10:06:52;3.25;;;0.82;;
25810;SDS011;13645;52.460;13.910;2022-07-06T10:09:20;4.65;;;1.10;;
25810;SDS011;13645;52.460;13.910;2022-07-06T10:11:52;5.63;;;0.70;;
25810;SDS011;13645;52.460;13.910;2022-07-06T10:14:21;1.35;;;0.63;;
25810;SDS011;13645;52.460;13.910;2022-07-06T10:16:52;1.70;;;0.60;;
25810;SDS011;13645;52.460;13.910;2022-07-06T10:19:21;2.38;;;0.70;;
25810;SDS011;13645;52.460;13.910;2022-07-06T10:21:48;3.70;;;0.60;;
25810;SDS011;13645;52.460;13.910;2022-07-06T10:24:15;0.85;;;0.50;;
25810;SDS011;13645;52.460;13.910;2022-07-06T10:26:42;3.30;;;0.50;;
25810;SDS011;13645;52.460;13.910;2022-07-06T10:29:09;3.25;;;1.00;;
25810;SDS011;13645;52.460;13.910;2022-07-06T10:31:37;3.70;;;0.95;;
25810;SDS011;13645;52.460;13.910;2022-07-06T10:34:08;3.28;;;0.50;;
25810;SDS011;13645;52.460;13.910;2022-07-06T10:36:41;6.55;;;0.90;;
25810;SDS011;13645;52.460;13.910;2022-07-06T10:39:10;2.63;;;0.73;;
25810;SDS011;13645;52.460;13.910;2022-07-06T10:41:56;2.78;;;0.82;;
25810;SDS011;13645;52.460;13.910;2022-07-06T10:44:23;2.38;;;0.82;;
25810;SDS011;13645;52.460;13.910;2022-07-06T10:46:53;3.38;;;0.77;;
25810;SDS011;13645;52.460;13.910;2022-07-06T10:49:21;5.65;;;0.75;;
25810;SDS011;13645;52.460;13.910;2022-07-06T10:52:09;4.85;;;0.90;;
25810;SDS011;13645;52.460;13.910;2022-07-06T10:54:38;3.65;;;0.90;;
25810;SDS011;13645;52.460;13.910;2022-07-06T10:57:08;3.50;;;0.65;;
25810;SDS011;13645;52.460;13.910;2022-07-06T10:59:41;3.38;;;0.90;;
25810;SDS011;13645;52.460;13.910;2022-07-06T11:02:26;4.93;;;0.80;;
25810;SDS011;13645;52.460;13.910;2022-07-06T11:04:52;1.73;;;0.60;;
25810;SDS011;13645;52.460;13.910;2022-07-06T11:07:19;2.63;;;0.90;;
25810;SDS011;13645;52.460;13.910;2022-07-06T11:09:57;7.20;;;1.00;;
25810;SDS011;13645;52.460;13.910;2022-07-06T11:12:25;3.40;;;0.90;;
25810;SDS011;13645;52.460;13.910;2022-07-06T11:14:52;4.93;;;0.70;;
25810;SDS011;13645;52.460;13.910;2022-07-06T11:17:20;3.45;;;0.82;;
25810;SDS011;13645;52.460;13.910;2022-07-06T11:22:17;3.65;;;0.70;;
25810;SDS011;13645;52.460;13.910;2022-07-06T11:24:47;4.28;;;0.88;;
25810;SDS011;13645;52.460;13.910;2022-07-06T11:27:13;5.53;;;0.90;;
25810;SDS011;13645;52.460;13.910;2022-07-06T11:29:40;3.03;;;0.50;;
25810;SDS011;13645;52.460;13.910;2022-07-06T11:32:08;3.85;;;0.75;;
25810;SDS011;13645;52.460;13.910;2022-07-06T11:34:38;5.38;;;0.70;;
25810;SDS011;13645;52.460;13.910;2022-07-06T11:37:09;4.07;;;0.75;;
25810;SDS011;13645;52.460;13.910;2022-07-06T11:39:38;2.88;;;1.00;;
25810;SDS011;13645;52.460;13.910;2022-07-06T11:42:10;3.88;;;0.50;;
25810;SDS011;13645;52.460;13.910;2022-07-06T11:44:38;3.50;;;0.80;;
25810;SDS011;13645;52.460;13.910;2022-07-06T11:47:06;5.35;;;0.70;;
25810;SDS011;13645;52.460;13.910;2022-07-06T11:49:34;4.97;;;0.80;;
25810;SDS011;13645;52.460;13.910;2022-07-06T11:52:06;2.88;;;0.95;;
25810;SDS011;13645;52.460;13.910;2022-07-06T11:54:34;3.05;;;1.00;;
25810;SDS011;13645;52.460;13.910;2022-07-06T11:57:01;3.80;;;0.70;;
25810;SDS011;13645;52.460;13.910;2022-07-06T11:59:31;2.67;;;0.60;;
25810;SDS011;13645;52.460;13.910;2022-07-06T12:04:31;3.03;;;0.75;;
25810;SDS011;13645;52.460;13.910;2022-07-06T12:07:05;2.95;;;0.60;;
25810;SDS011;13645;52.460;13.910;2022-07-06T12:09:35;5.35;;;1.10;;
25810;SDS011;13645;52.460;13.910;2022-07-06T12:12:03;2.42;;;0.68;;
25810;SDS011;13645;52.460;13.910;2022-07-06T12:14:32;4.93;;;0.80;;
25810;SDS011;13645;52.460;13.910;2022-07-06T12:17:04;3.47;;;0.85;;
25810;SDS011;13645;52.460;13.910;2022-07-06T12:19:32;3.60;;;0.75;;
25810;SDS011;13645;52.460;13.910;2022-07-06T12:22:00;4.82;;;0.90;;
25810;SDS011;13645;52.460;13.910;2022-07-06T12:24:29;3.25;;;0.52;;
25810;SDS011;13645;52.460;13.910;2022-07-06T12:26:58;1.48;;;0.70;;
25810;SDS011;13645;52.460;13.910;2022-07-06T12:32:16;2.22;;;0.80;;
25810;SDS011;13645;52.460;13.910;2022-07-06T12:35:01;3.55;;;0.88;;
25810;SDS011;13645;52.460;13.910;2022-07-06T12:37:32;1.88;;;0.70;;
25810;SDS011;13645;52.460;13.910;2022-07-06T12:39:59;2.95;;;1.08;;
25810;SDS011;13645;52.460;13.910;2022-07-06T12:42:27;4.18;;;0.93;;
25810;SDS011;13645;52.460;13.910;2022-07-06T12:44:54;2.80;;;0.90;;
25810;SDS011;13645;52.460;13.910;2022-07-06T12:47:22;2.67;;;1.00;;
25810;SDS011;13645;52.460;13.910;2022-07-06T12:50:04;6.10;;;0.75;;
25810;SDS011;13645;52.460;13.910;2022-07-06T12:55:03;2.67;;;0.90;;
25810;SDS011;13645;52.460;13.910;2022-07-06T12:57:44;6.40;;;0.80;;
25810;SDS011;13645;52.460;13.910;2022-07-06T13:00:12;4.72;;;0.82;;
25810;SDS011;13645;52.460;13.910;2022-07-06T13:02:40;2.03;;;0.60;;
25810;SDS011;13645;52.460;13.910;2022-07-06T13:05:29;6.07;;;0.75;;
25810;SDS011;13645;52.460;13.910;2022-07-06T13:07:57;4.75;;;0.63;;
25810;SDS011;13645;52.460;13.910;2022-07-06T13:10:24;4.80;;;0.98;;
25810;SDS011;13645;52.460;13.910;2022-07-06T13:12:51;4.53;;;0.70;;
25810;SDS011;13645;52.460;13.910;2022-07-06T13:15:18;2.70;;;0.80;;
25810;SDS011;13645;52.460;13.910;2022-07-06T13:17:45;4.15;;;0.50;;
25810;SDS011;13645;52.460;13.910;2022-07-06T13:20:12;2.67;;;0.75;;
25810;SDS011;13645;52.460;13.910;2022-07-06T13:22:40;4.85;;;0.80;;
25810;SDS011;13645;52.460;13.910;2022-07-06T13:25:07;4.32;;;0.90;;
25810;SDS011;13645;52.460;13.910;2022-07-06T13:27:34;8.60;;;1.65;;
25810;SDS011;13645;52.460;13.910;2022-07-06T13:30:01;3.15;;;0.63;;
25810;SDS011;13645;52.460;13.910;2022-07-06T13:32:28;2.40;;;0.70;;
25810;SDS011;13645;52.460;13.910;2022-07-06T13:34:55;1.83;;;0.57;;
25810;SDS011;13645;52.460;13.910;2022-07-06T13:37:22;1.98;;;0.60;;
25810;SDS011;13645;52.460;13.910;2022-07-06T13:39:49;1.85;;;0.60;;
25810;SDS011;13645;52.460;13.910;2022-07-06T13:42:16;3.70;;;0.55;;
25810;SDS011;13645;52.460;13.910;2022-07-06T13:44:43;4.15;;;0.85;;
25810;SDS011;13645;52.460;13.910;2022-07-06T13:47:10;2.30;;;0.70;;
25810;SDS011;13645;52.460;13.910;2022-07-06T13:49:37;4.70;;;0.90;;
25810;SDS011;13645;52.460;13.910;2022-07-06T13:52:03;3.15;;;0.70;;
25810;SDS011;13645;52.460;13.910;2022-07-06T13:54:31;5.32;;;0.90;;
25810;SDS011;13645;52.460;13.910;2022-07-06T13:57:01;2.60;;;0.73;;
25810;SDS011;13645;52.460;13.910;2022-07-06T13:59:29;5.38;;;0.80;;
25810;SDS011;13645;52.460;13.910;2022-07-06T14:01:56;4.60;;;0.80;;
25810;SDS011;13645;52.460;13.910;2022-07-06T14:04:24;3.70;;;0.80;;
25810;SDS011;13645;52.460;13.910;2022-07-06T14:06:51;2.95;;;0.63;;
25810;SDS011;13645;52.460;13.910;2022-07-06T14:09:18;2.47;;;0.70;;
25810;SDS011;13645;52.460;13.910;2022-07-06T14:11:44;3.20;;;0.70;;
25810;SDS011;13645;52.460;13.910;2022-07-06T14:14:11;3.25;;;0.77;;
25810;SDS011;13645;52.460;13.910;2022-07-06T14:16:38;2.92;;;0.70;;
25810;SDS011;13645;52.460;13.910;2022-07-06T14:19:07;3.00;;;0.60;;
25810;SDS011;13645;52.460;13.910;2022-07-06T14:21:34;2.70;;;0.60;;
25810;SDS011;13645;52.460;13.910;2022-07-06T14:24:01;2.15;;;0.85;;
25810;SDS011;13645;52.460;13.910;2022-07-06T14:26:28;2.10;;;0.75;;
25810;SDS011;13645;52.460;13.910;2022-07-06T14:28:55;2.85;;;0.80;;
25810;SDS011;13645;52.460;13.910;2022-07-06T14:31:22;3.25;;;0.90;;
25810;SDS011;13645;52.460;13.910;2022-07-06T14:33:49;2.25;;;0.50;;
25810;SDS011;13645;52.460;13.910;2022-07-06T14:36:17;2.95;;;0.73;;
25810;SDS011;13645;52.460;13.910;2022-07-06T14:38:43;6.13;;;0.95;;
25810;SDS011;13645;52.460;13.910;2022-07-06T14:41:10;6.10;;;0.90;;
25810;SDS011;13645;52.460;13.910;2022-07-06T14:43:37;5.32;;;1.00;;
25810;SDS011;13645;52.460;13.910;2022-07-06T14:46:04;2.50;;;0.95;;
25810;SDS011;13645;52.460;13.910;2022-07-06T14:48:31;2.92;;;0.70;;
25810;SDS011;13645;52.460;13.910;2022-07-06T14:50:58;3.30;;;0.63;;
25810;SDS011;13645;52.460;13.910;2022-07-06T14:53:25;5.57;;;0.80;;